PANA Airport (Napakiak) Information

FAA: WNA - ICAO: PANA

PANA Airport Location

State Alaska
County Bethel
City Napakiak
PANA Airport is 0 miles west of Napakiak, AK.
Latitude 60-41-25.2000N
Longitude 161-58-42.6000W
Elevation 16ft

PANA Airport METARs

METAR PANA 181156Z AUTO 06008KT 10SM CLR M15/M16 A2992 RMK AO2 SLP131 60000 T11501161 11133 21150 58006 FZRANO TSNO
Altimeter 29.92"
Temperature -15.0°C (5.0°F)
Wind 60° at 8KT
Clouds Skies are clear.
Visibility 10.0mi
Time observed: 2022-01-18T11:56:00Z

PANA Airport Details

Status Operational
Activation September 1976
Ownership Public
Usage Public
Chart BETHEL
ATC on-site No
Beacon schedule N/A
Beacon color clear green

PANA Airport Contacts

Owner ALASKA DOT&PF CENTRAL REGION
Owner address PO BOX 196900, ANCHORAGE, AK 99519-6900
Owner phone 907-266-1735
Manager N/A
Manager address N/A, N/A
Manager phone N/A

PANA Airport (Napakiak) Radio Frequencies

PANA (Airport) Radio Frequencies

UNICOM N/A
Common traffic advisory frequency (CTAF) 122.9